createdAt,value
2023-05-01T00:00:38.300Z,16.02
2023-05-01T00:01:00.823Z,14.38
2023-05-01T00:01:13.370Z,14.55
2023-05-01T00:01:26.199Z,14.98
2023-05-01T00:01:38.807Z,14.35
2023-05-01T00:01:51.948Z,13.45
2023-05-01T00:02:04.436Z,13.60
2023-05-01T00:02:18.016Z,14.00
2023-05-01T00:02:30.850Z,14.65
2023-05-01T00:02:43.668Z,15.27
2023-05-01T00:02:56.342Z,15.35
2023-05-01T00:03:08.980Z,16.55
2023-05-01T00:03:21.706Z,15.50
2023-05-01T00:03:34.582Z,14.88
2023-05-01T00:03:48.431Z,15.65
2023-05-01T00:04:01.389Z,15.07
2023-05-01T00:04:14.258Z,15.48
2023-05-01T00:04:26.956Z,17.00
2023-05-01T00:04:39.614Z,17.55
2023-05-01T00:04:52.185Z,16.70
2023-05-01T00:05:06.513Z,17.02
2023-05-01T00:05:19.344Z,17.75
2023-05-01T00:05:33.225Z,17.83
2023-05-01T00:05:46.545Z,18.25
2023-05-01T00:06:04.144Z,19.98
2023-05-01T00:06:16.742Z,19.67
2023-05-01T00:06:29.976Z,18.40
2023-05-01T00:06:43.662Z,17.67
2023-05-01T00:06:56.201Z,16.98
2023-05-01T00:07:08.734Z,17.85
2023-05-01T00:07:21.330Z,19.80
2023-05-01T00:07:33.838Z,19.27
2023-05-01T00:07:46.417Z,17.65
2023-05-01T00:07:58.889Z,17.40
2023-05-01T00:08:12.386Z,18.23
2023-05-01T00:08:24.903Z,18.48
2023-05-01T00:08:37.442Z,19.30
2023-05-01T00:08:50.015Z,18.73
2023-05-01T00:09:02.905Z,19.13
2023-05-01T00:09:15.414Z,19.27
2023-05-01T00:09:28.192Z,19.98
2023-05-01T00:09:41.670Z,20.35
2023-05-01T00:09:54.772Z,17.80
2023-05-01T00:10:08.381Z,17.67
2023-05-01T00:10:20.884Z,18.63
2023-05-01T00:10:36.393Z,20.60
2023-05-01T00:10:48.909Z,20.08
2023-05-01T00:11:03.274Z,18.46
2023-05-01T00:11:16.856Z,17.27
2023-05-01T00:11:29.374Z,17.30
2023-05-01T00:11:42.188Z,17.75
2023-05-01T00:11:54.841Z,17.60
2023-05-01T00:12:07.346Z,18.17
2023-05-01T00:12:19.857Z,17.95
2023-05-01T00:12:32.410Z,18.30
2023-05-01T00:12:46.124Z,19.23
2023-05-01T00:12:58.644Z,20.38
2023-05-01T00:13:11.442Z,18.75
2023-05-01T00:13:24.545Z,18.55
2023-05-01T00:13:37.168Z,18.40
2023-05-01T00:13:49.700Z,18.08
2023-05-01T00:14:02.234Z,18.17
2023-05-01T00:14:14.785Z,18.98
2023-05-01T00:14:29.367Z,20.10
2023-05-01T00:14:42.208Z,19.55
2023-05-01T00:14:55.078Z,17.55
2023-05-01T00:15:09.149Z,19.70
2023-05-01T00:15:21.936Z,21.75
2023-05-01T00:15:34.645Z,19.40
2023-05-01T00:15:47.444Z,19.08
2023-05-01T00:16:00.167Z,21.02
2023-05-01T00:16:14.229Z,20.48
2023-05-01T00:16:26.878Z,22.08
2023-05-01T00:16:39.520Z,21.50
2023-05-01T00:16:52.502Z,20.23
2023-05-01T00:17:06.181Z,20.90
2023-05-01T00:17:18.817Z,21.15
2023-05-01T00:17:31.417Z,20.95
2023-05-01T00:17:45.040Z,19.80
2023-05-01T00:17:58.510Z,19.45
2023-05-01T00:18:11.332Z,19.40
2023-05-01T00:18:23.973Z,19.95
2023-05-01T00:18:36.521Z,21.92
2023-05-01T00:18:49.025Z,22.35
2023-05-01T00:19:01.531Z,21.80
2023-05-01T00:19:18.372Z,20.88
2023-05-01T00:19:31.123Z,21.17
2023-05-01T00:19:43.709Z,21.05
2023-05-01T00:19:56.499Z,20.48
2023-05-01T00:20:10.564Z,19.88
2023-05-01T00:20:26.755Z,21.70
2023-05-01T00:20:40.826Z,25.38
2023-05-01T00:20:54.581Z,26.05
2023-05-01T00:21:07.112Z,26.05
2023-05-01T00:21:19.670Z,25.02
2023-05-01T00:21:32.215Z,25.10
2023-05-01T00:21:45.902Z,25.98
2023-05-01T00:21:58.508Z,23.52
2023-05-01T00:22:12.056Z,22.75
2023-05-01T00:22:24.583Z,24.77
2023-05-01T00:22:37.388Z,24.23
2023-05-01T00:22:49.896Z,23.25
2023-05-01T00:23:02.477Z,24.23
2023-05-01T00:23:15.041Z,25.00
2023-05-01T00:23:27.903Z,22.55
2023-05-01T00:23:41.672Z,22.63
2023-05-01T00:23:54.309Z,22.13
2023-05-01T00:24:06.885Z,21.38
2023-05-01T00:24:19.391Z,20.52
2023-05-01T00:24:32.332Z,20.55
2023-05-01T00:24:45.524Z,21.13
2023-05-01T00:24:58.056Z,19.92
2023-05-01T00:25:11.725Z,20.20
2023-05-01T00:25:24.226Z,20.60
2023-05-01T00:25:36.732Z,19.80
2023-05-01T00:25:49.615Z,16.35
2023-05-01T00:26:02.303Z,16.95
2023-05-01T00:26:14.866Z,18.08
2023-05-01T00:26:30.554Z,18.35
2023-05-01T00:26:44.182Z,19.38
2023-05-01T00:26:56.794Z,18.70
2023-05-01T00:27:09.441Z,18.40
2023-05-01T00:27:22.056Z,18.17
2023-05-01T00:27:34.597Z,16.80
2023-05-01T00:27:48.343Z,16.27
2023-05-01T00:28:02.153Z,17.55
2023-05-01T00:28:14.708Z,18.90
2023-05-01T00:28:27.524Z,19.20
2023-05-01T00:28:40.029Z,18.73
2023-05-01T00:28:52.603Z,19.75
2023-05-01T00:29:05.154Z,18.70
2023-05-01T00:29:17.780Z,16.48
2023-05-01T00:29:31.343Z,16.23
2023-05-01T00:29:43.864Z,16.15
2023-05-01T00:29:56.597Z,16.00
2023-05-01T00:30:10.035Z,15.30
2023-05-01T00:30:22.760Z,15.25
2023-05-01T00:30:35.874Z,16.33
2023-05-01T00:30:48.519Z,16.23
2023-05-01T00:31:01.066Z,14.50
2023-05-01T00:31:14.761Z,14.00
2023-05-01T00:31:27.312Z,14.45
2023-05-01T00:31:41.626Z,17.23
2023-05-01T00:31:54.931Z,16.27
2023-05-01T00:32:08.040Z,16.85
2023-05-01T00:32:20.746Z,17.33
2023-05-01T00:32:34.684Z,15.05
2023-05-01T00:32:47.634Z,16.40
2023-05-01T00:33:00.999Z,16.23
2023-05-01T00:33:13.716Z,13.65
2023-05-01T00:33:26.232Z,14.80
2023-05-01T00:33:38.774Z,16.52
2023-05-01T00:33:51.291Z,15.52
2023-05-01T00:34:05.127Z,14.35
2023-05-01T00:34:17.781Z,12.68
2023-05-01T00:34:30.595Z,14.20
2023-05-01T00:34:43.202Z,16.08
2023-05-01T00:34:57.669Z,16.55
2023-05-01T00:35:10.172Z,16.58
2023-05-01T00:35:22.744Z,15.57
2023-05-01T00:35:36.294Z,15.25
2023-05-01T00:35:51.428Z,15.15
2023-05-01T00:36:04.596Z,14.70
2023-05-01T00:36:17.128Z,14.90
2023-05-01T00:36:29.675Z,17.13
2023-05-01T00:36:42.594Z,18.23
2023-05-01T00:36:56.215Z,17.65
2023-05-01T00:37:08.801Z,16.73
2023-05-01T00:37:21.330Z,16.52
2023-05-01T00:37:33.837Z,17.42
2023-05-01T00:37:46.988Z,16.83
2023-05-01T00:37:59.513Z,16.35
2023-05-01T00:38:12.265Z,17.10
2023-05-01T00:38:25.908Z,17.17
2023-05-01T00:38:38.432Z,16.38
2023-05-01T00:38:50.955Z,16.13
2023-05-01T00:39:03.996Z,16.60
2023-05-01T00:39:16.579Z,17.70
2023-05-01T00:39:29.132Z,18.30
2023-05-01T00:39:41.642Z,17.92
2023-05-01T00:39:56.179Z,18.33
2023-05-01T00:40:09.498Z,17.17
2023-05-01T00:40:22.814Z,16.48
2023-05-01T00:40:42.180Z,16.13
2023-05-01T00:40:54.726Z,16.90
2023-05-01T00:41:07.335Z,15.68
2023-05-01T00:41:21.211Z,14.63
2023-05-01T00:41:34.370Z,14.35
2023-05-01T00:41:46.870Z,14.55
2023-05-01T00:41:59.547Z,14.77
2023-05-01T00:42:12.139Z,15.80
2023-05-01T00:42:24.673Z,15.23
2023-05-01T00:42:39.233Z,15.18
2023-05-01T00:42:52.720Z,15.70
2023-05-01T00:43:05.228Z,15.98
2023-05-01T00:43:17.824Z,17.38
2023-05-01T00:43:30.569Z,17.55
2023-05-01T00:43:43.344Z,16.17
2023-05-01T00:43:55.972Z,15.32
2023-05-01T00:44:08.541Z,16.08
2023-05-01T00:44:22.232Z,16.63
2023-05-01T00:44:34.970Z,15.50
2023-05-01T00:44:47.754Z,15.63
2023-05-01T00:45:00.369Z,16.70
2023-05-01T00:45:12.972Z,15.98
2023-05-01T00:45:25.700Z,16.23
2023-05-01T00:45:38.733Z,16.30
2023-05-01T00:45:52.327Z,18.17
2023-05-01T00:46:06.468Z,16.80
2023-05-01T00:46:19.457Z,15.20
2023-05-01T00:46:34.146Z,16.27
2023-05-01T00:46:46.931Z,16.27
2023-05-01T00:47:02.299Z,16.00
2023-05-01T00:47:15.892Z,16.85
2023-05-01T00:47:28.795Z,17.63
2023-05-01T00:47:41.773Z,17.70
2023-05-01T00:47:54.512Z,15.80
2023-05-01T00:48:07.236Z,15.77
2023-05-01T00:48:19.949Z,16.67
2023-05-01T00:48:33.436Z,16.48
2023-05-01T00:48:46.148Z,16.00
2023-05-01T00:48:59.003Z,16.77
2023-05-01T00:49:11.737Z,16.52
2023-05-01T00:49:24.520Z,17.15
2023-05-01T00:49:37.179Z,17.25
2023-05-01T00:49:51.341Z,16.27
2023-05-01T00:50:05.375Z,16.35
2023-05-01T00:50:18.384Z,15.77
2023-05-01T00:50:31.313Z,16.13
2023-05-01T00:50:44.505Z,16.13
2023-05-01T00:51:00.695Z,15.40
2023-05-01T00:51:13.544Z,16.42
2023-05-01T00:51:30.352Z,19.20
2023-05-01T00:51:43.126Z,20.00
2023-05-01T00:51:56.132Z,19.17
2023-05-01T00:52:09.936Z,19.25
2023-05-01T00:52:24.710Z,20.30
2023-05-01T00:52:37.502Z,22.63
2023-05-01T00:52:51.021Z,23.58
2023-05-01T00:53:04.254Z,22.50
2023-05-01T00:53:16.952Z,21.40
2023-05-01T00:53:29.682Z,21.33
2023-05-01T00:53:43.550Z,22.33
2023-05-01T00:53:56.577Z,22.65
2023-05-01T00:54:10.169Z,23.45
2023-05-01T00:54:25.210Z,22.95
2023-05-01T00:54:38.124Z,24.70
2023-05-01T00:54:52.231Z,26.90
2023-05-01T00:55:06.038Z,25.98
2023-05-01T00:55:19.061Z,24.63
2023-05-01T00:55:33.109Z,24.45
2023-05-01T00:55:46.431Z,25.27
2023-05-01T00:56:00.897Z,26.83
2023-05-01T00:56:14.481Z,27.02
2023-05-01T00:56:27.999Z,26.23
2023-05-01T00:56:40.490Z,25.00
2023-05-01T00:56:53.408Z,24.45
2023-05-01T00:57:06.893Z,23.80
2023-05-01T00:57:21.516Z,24.27
2023-05-01T00:57:34.042Z,23.98
2023-05-01T00:57:47.202Z,23.90
2023-05-01T00:58:01.357Z,27.77
2023-05-01T00:58:14.664Z,29.58
2023-05-01T00:58:27.334Z,26.45
2023-05-01T00:58:40.715Z,25.33
2023-05-01T00:58:55.303Z,24.63
2023-05-01T00:59:08.388Z,24.42
2023-05-01T00:59:21.154Z,24.77
2023-05-01T00:59:33.676Z,24.00
2023-05-01T00:59:46.366Z,25.20
2023-05-01T00:59:58.982Z,25.08
2023-05-01T01:00:14.145Z,24.17
2023-05-01T01:00:26.718Z,23.00
2023-05-01T01:00:39.359Z,23.48
2023-05-01T01:00:52.463Z,23.08
2023-05-01T01:01:05.339Z,25.00
2023-05-01T01:01:19.654Z,24.50
2023-05-01T01:01:34.832Z,25.58
2023-05-01T01:01:47.713Z,25.27
2023-05-01T01:02:00.410Z,22.17
2023-05-01T01:02:13.489Z,21.55
2023-05-01T01:02:28.772Z,24.65
2023-05-01T01:02:41.328Z,27.45
2023-05-01T01:02:55.124Z,25.20
2023-05-01T01:03:08.178Z,23.15
2023-05-01T01:03:21.341Z,22.23
2023-05-01T01:03:33.880Z,22.38
2023-05-01T01:03:46.372Z,21.23
2023-05-01T01:03:58.889Z,23.13
2023-05-01T01:04:12.716Z,24.42
2023-05-01T01:04:26.005Z,23.95
2023-05-01T01:04:38.991Z,22.13
2023-05-01T01:04:51.728Z,22.40
2023-05-01T01:05:05.208Z,20.83
2023-05-01T01:05:19.012Z,20.88
2023-05-01T01:05:35.337Z,21.02
2023-05-01T01:05:57.318Z,22.58
2023-05-01T01:06:21.717Z,22.35
2023-05-01T01:06:41.955Z,21.67
2023-05-01T01:07:02.824Z,22.92
2023-05-01T01:07:21.936Z,23.42
2023-05-01T01:07:43.370Z,23.42
2023-05-01T01:08:05.214Z,22.85
2023-05-01T01:08:24.063Z,21.30
2023-05-01T01:08:42.207Z,22.10
2023-05-01T01:09:08.156Z,22.45
2023-05-01T01:09:32.795Z,22.23
2023-05-01T01:09:57.605Z,22.83
2023-05-01T01:10:20.293Z,23.60
2023-05-01T01:10:42.120Z,21.05
2023-05-01T01:11:01.694Z,22.42
2023-05-01T01:11:24.514Z,22.17
2023-05-01T01:11:43.098Z,22.40
2023-05-01T01:12:06.738Z,22.17
2023-05-01T01:12:27.828Z,23.33
2023-05-01T01:12:54.877Z,21.60
2023-05-01T01:13:13.019Z,22.42
2023-05-01T01:13:30.288Z,22.58
2023-05-01T01:13:52.145Z,21.80
2023-05-01T01:14:12.762Z,22.38
2023-05-01T01:14:33.020Z,22.55
2023-05-01T01:14:50.950Z,21.92
2023-05-01T01:15:14.645Z,23.88
2023-05-01T01:15:34.892Z,21.40
2023-05-01T01:15:54.936Z,20.38
2023-05-01T01:16:16.103Z,20.55
2023-05-01T01:16:33.979Z,19.83
2023-05-01T01:16:54.844Z,20.50
2023-05-01T01:17:14.950Z,20.10
2023-05-01T01:17:32.259Z,22.38
2023-05-01T01:17:53.074Z,22.38
2023-05-01T01:18:12.616Z,21.45
2023-05-01T01:18:35.065Z,22.17
2023-05-01T01:18:54.102Z,20.58
2023-05-01T01:19:22.273Z,19.65
2023-05-01T01:20:04.267Z,19.92
2023-05-01T01:20:32.666Z,21.40
2023-05-01T01:20:50.072Z,22.42
2023-05-01T01:21:09.045Z,21.98
2023-05-01T01:21:28.333Z,20.13
2023-05-01T01:21:45.205Z,20.80
2023-05-01T01:22:06.985Z,19.45
2023-05-01T01:22:23.455Z,19.17
2023-05-01T01:22:40.168Z,19.83
2023-05-01T01:23:01.808Z,20.48
2023-05-01T01:23:33.651Z,19.65
2023-05-01T01:24:08.248Z,19.15
2023-05-01T01:24:45.872Z,19.15
2023-05-01T01:25:30.010Z,19.80
2023-05-01T01:26:07.295Z,20.23
2023-05-01T01:26:39.318Z,20.13
2023-05-01T01:27:13.609Z,20.08
2023-05-01T01:27:43.734Z,16.58
2023-05-01T01:28:18.386Z,18.52
2023-05-01T01:28:52.367Z,18.65
2023-05-01T01:30:08.560Z,21.23
2023-05-01T01:30:47.761Z,19.33
2023-05-01T01:31:12.202Z,19.98
2023-05-01T01:31:32.831Z,19.38
2023-05-01T01:31:56.379Z,18.85
2023-05-01T01:32:34.571Z,20.05
2023-05-01T01:33:24.095Z,21.25
2023-05-01T01:33:51.663Z,19.83
2023-05-01T01:34:12.079Z,19.30
2023-05-01T01:34:28.169Z,19.98
2023-05-01T01:34:46.372Z,17.52
2023-05-01T01:35:03.350Z,18.55
2023-05-01T01:35:19.698Z,19.60
2023-05-01T01:35:34.195Z,20.10
2023-05-01T01:35:53.840Z,19.65
2023-05-01T01:36:11.766Z,18.20
2023-05-01T01:36:40.425Z,19.08
2023-05-01T01:37:01.108Z,18.65
2023-05-01T01:37:20.746Z,19.15
2023-05-01T01:37:41.636Z,19.33
2023-05-01T01:38:00.786Z,19.90
2023-05-01T01:38:20.967Z,19.25
2023-05-01T01:38:40.560Z,18.77
2023-05-01T01:39:10.673Z,19.27
2023-05-01T01:39:29.106Z,19.80
2023-05-01T01:39:50.743Z,20.88
2023-05-01T01:40:08.139Z,18.45
2023-05-01T01:40:25.969Z,18.30
2023-05-01T01:40:40.654Z,18.60
2023-05-01T01:40:59.747Z,19.17
2023-05-01T01:41:18.978Z,19.67
2023-05-01T01:41:34.824Z,21.15
2023-05-01T01:41:51.262Z,21.40
2023-05-01T01:42:09.236Z,19.52
2023-05-01T01:42:26.990Z,17.88
2023-05-01T01:42:44.227Z,19.48
2023-05-01T01:43:03.170Z,19.35
2023-05-01T01:43:19.019Z,18.20
2023-05-01T01:43:37.989Z,19.83
2023-05-01T01:43:58.495Z,22.88
2023-05-01T01:44:20.897Z,19.65
2023-05-01T01:44:40.169Z,19.50
2023-05-01T01:44:56.119Z,20.38
2023-05-01T01:45:15.432Z,18.60
2023-05-01T01:45:34.595Z,19.55
2023-05-01T01:45:50.127Z,17.95
2023-05-01T01:46:08.239Z,17.70
2023-05-01T01:46:23.375Z,19.52
2023-05-01T01:46:39.917Z,19.73
2023-05-01T01:46:54.532Z,17.85
2023-05-01T01:47:12.244Z,17.45
2023-05-01T01:47:31.838Z,18.90
2023-05-01T01:47:46.501Z,18.83
2023-05-01T01:48:02.157Z,18.80
2023-05-01T01:48:18.190Z,18.02
2023-05-01T01:48:34.559Z,17.00
2023-05-01T01:48:51.572Z,20.25
2023-05-01T01:49:08.648Z,20.63
2023-05-01T01:49:26.316Z,18.55
2023-05-01T01:49:42.576Z,20.75
2023-05-01T01:49:56.723Z,19.63
2023-05-01T01:50:12.603Z,18.90
2023-05-01T01:50:28.353Z,20.02
2023-05-01T01:50:43.457Z,21.17
2023-05-01T01:50:58.728Z,21.25
2023-05-01T01:51:16.480Z,19.67
2023-05-01T01:51:30.475Z,19.23
2023-05-01T01:51:44.073Z,18.25
2023-05-01T01:51:59.145Z,17.90
2023-05-01T01:52:15.290Z,19.58
2023-05-01T01:52:30.643Z,19.90
2023-05-01T01:52:47.657Z,19.55
2023-05-01T01:53:03.435Z,20.15
2023-05-01T01:53:18.761Z,20.60
2023-05-01T01:53:33.231Z,20.48
2023-05-01T01:53:51.084Z,19.58
2023-05-01T01:54:05.155Z,21.38
2023-05-01T01:54:22.396Z,21.20
2023-05-01T01:54:38.934Z,17.98
2023-05-01T01:54:54.599Z,18.70
2023-05-01T01:55:11.718Z,18.95
2023-05-01T01:55:29.470Z,18.17
2023-05-01T01:55:44.669Z,19.88
2023-05-01T01:56:01.264Z,19.42
2023-05-01T01:56:17.719Z,17.70
2023-05-01T01:56:33.425Z,19.95
2023-05-01T01:56:49.611Z,18.98
2023-05-01T01:57:03.493Z,17.48
2023-05-01T01:57:18.701Z,17.30
2023-05-01T01:57:32.445Z,17.23
2023-05-01T01:57:47.154Z,17.10
2023-05-01T01:58:03.790Z,16.30
2023-05-01T01:58:20.775Z,15.95
2023-05-01T01:58:36.777Z,15.20
2023-05-01T01:58:52.892Z,14.95
2023-05-01T01:59:06.961Z,16.67
2023-05-01T01:59:22.080Z,16.33
2023-05-01T01:59:35.341Z,16.25
2023-05-01T01:59:51.304Z,16.38
2023-05-01T02:00:08.989Z,15.88
2023-05-01T02:00:23.035Z,17.10
2023-05-01T02:00:35.992Z,15.35
2023-05-01T02:00:49.810Z,15.40
2023-05-01T02:01:03.841Z,15.82
2023-05-01T02:01:18.655Z,13.80
2023-05-01T02:01:32.767Z,13.65
2023-05-01T02:01:46.924Z,14.80
2023-05-01T02:02:03.296Z,15.73
2023-05-01T02:02:19.548Z,16.02
2023-05-01T02:02:32.232Z,14.82
2023-05-01T02:02:47.134Z,13.98
2023-05-01T02:03:02.094Z,13.93
2023-05-01T02:03:15.642Z,14.23
2023-05-01T02:03:30.946Z,14.68
2023-05-01T02:03:46.162Z,15.18
2023-05-01T02:04:01.319Z,14.50
2023-05-01T02:04:16.026Z,15.00
2023-05-01T02:04:31.537Z,15.85
2023-05-01T02:04:45.805Z,15.60
2023-05-01T02:04:59.503Z,15.15
2023-05-01T02:05:14.974Z,14.32
2023-05-01T02:05:28.625Z,13.68
2023-05-01T02:05:43.826Z,13.25
2023-05-01T02:05:59.617Z,13.93
2023-05-01T02:06:13.444Z,14.88
2023-05-01T02:06:27.505Z,15.63
2023-05-01T02:06:41.418Z,15.45
2023-05-01T02:06:56.725Z,13.35
2023-05-01T02:07:11.421Z,14.63
2023-05-01T02:07:25.606Z,15.57
2023-05-01T02:07:41.702Z,15.07
2023-05-01T02:07:56.530Z,15.77
2023-05-01T02:08:11.704Z,15.10
2023-05-01T02:08:25.557Z,12.77
2023-05-01T02:08:38.515Z,13.45
2023-05-01T02:08:52.111Z,14.18
2023-05-01T02:09:06.596Z,14.73
2023-05-01T02:09:22.757Z,14.52
2023-05-01T02:09:37.321Z,14.80
2023-05-01T02:09:51.746Z,15.48
2023-05-01T02:10:05.933Z,14.65
2023-05-01T02:10:20.990Z,14.63
2023-05-01T02:10:35.709Z,15.38
2023-05-01T02:10:50.937Z,13.98
2023-05-01T02:11:05.444Z,14.18
2023-05-01T02:11:21.740Z,15.02
2023-05-01T02:11:37.213Z,14.82
2023-05-01T02:11:51.035Z,16.58
2023-05-01T02:12:06.987Z,16.10
2023-05-01T02:12:21.088Z,14.43
2023-05-01T02:12:34.477Z,15.82
2023-05-01T02:12:51.987Z,16.67
2023-05-01T02:13:05.877Z,16.63
2023-05-01T02:13:20.558Z,15.65
2023-05-01T02:13:34.818Z,14.48
2023-05-01T02:13:49.460Z,15.07
2023-05-01T02:14:03.690Z,15.23
2023-05-01T02:14:18.850Z,14.32
2023-05-01T02:14:32.253Z,15.13
2023-05-01T02:14:46.198Z,15.75
2023-05-01T02:15:00.034Z,14.18
2023-05-01T02:15:14.355Z,14.00
2023-05-01T02:15:29.863Z,14.60
2023-05-01T02:15:43.941Z,14.75
2023-05-01T02:15:58.252Z,16.42
2023-05-01T02:16:13.366Z,17.42
2023-05-01T02:16:27.725Z,17.05
2023-05-01T02:16:42.134Z,15.20
2023-05-01T02:16:56.194Z,14.65
2023-05-01T02:17:11.245Z,14.20
2023-05-01T02:17:24.289Z,13.13
2023-05-01T02:17:38.483Z,14.68
2023-05-01T02:17:52.986Z,14.93
2023-05-01T02:18:06.636Z,13.90
2023-05-01T02:18:21.109Z,14.13
2023-05-01T02:18:34.655Z,14.73
2023-05-01T02:18:47.492Z,14.38
2023-05-01T02:19:03.828Z,14.85
2023-05-01T02:19:19.028Z,15.88
2023-05-01T02:19:33.653Z,16.15
2023-05-01T02:19:46.822Z,15.93
2023-05-01T02:19:59.780Z,16.10
2023-05-01T02:20:13.824Z,15.07
2023-05-01T02:20:27.894Z,15.50
2023-05-01T02:20:42.900Z,14.63
2023-05-01T02:20:58.620Z,13.63
2023-05-01T02:21:12.498Z,14.98
2023-05-01T02:21:26.472Z,15.05
2023-05-01T02:21:39.661Z,14.25
2023-05-01T02:21:55.144Z,14.52
2023-05-01T02:22:09.381Z,14.43
2023-05-01T02:22:23.823Z,14.00
2023-05-01T02:22:38.438Z,13.80
2023-05-01T02:22:53.125Z,14.48
2023-05-01T02:23:07.882Z,15.80
2023-05-01T02:23:20.762Z,15.25
2023-05-01T02:23:34.028Z,14.02
2023-05-01T02:23:48.616Z,15.18
2023-05-01T02:24:02.356Z,14.77
2023-05-01T02:24:16.032Z,14.68
2023-05-01T02:24:30.124Z,15.13
2023-05-01T02:24:44.417Z,16.23
2023-05-01T02:25:01.189Z,17.65
2023-05-01T02:25:14.988Z,16.63
2023-05-01T02:25:31.567Z,16.85
2023-05-01T02:25:45.490Z,17.75
2023-05-01T02:26:01.104Z,16.40
2023-05-01T02:26:17.002Z,14.55
2023-05-01T02:26:31.325Z,14.65
2023-05-01T02:26:56.903Z,15.40
2023-05-01T02:27:15.785Z,13.73
2023-05-01T02:27:37.443Z,16.00
2023-05-01T02:27:55.862Z,15.13
2023-05-01T02:28:13.248Z,14.38
2023-05-01T02:28:28.428Z,15.23
2023-05-01T02:28:41.484Z,13.93
2023-05-01T02:28:54.630Z,13.00
2023-05-01T02:29:07.745Z,13.50
2023-05-01T02:29:21.370Z,14.07
2023-05-01T02:29:34.214Z,15.23
2023-05-01T02:29:46.872Z,14.93
2023-05-01T02:29:59.578Z,14.60
2023-05-01T02:30:13.099Z,13.90
2023-05-01T02:30:25.692Z,13.75
2023-05-01T02:30:39.154Z,15.13
2023-05-01T02:30:53.076Z,16.08
2023-05-01T02:31:05.954Z,15.80
2023-05-01T02:31:19.624Z,15.07
2023-05-01T02:31:32.365Z,14.05
2023-05-01T02:31:44.979Z,13.68
2023-05-01T02:31:57.639Z,13.82
2023-05-01T02:32:10.357Z,14.43
2023-05-01T02:32:24.262Z,15.60
2023-05-01T02:32:37.859Z,15.10
2023-05-01T02:32:50.812Z,16.52
2023-05-01T02:33:04.032Z,18.10
2023-05-01T02:33:16.630Z,17.38
2023-05-01T02:33:29.438Z,16.85
2023-05-01T02:33:41.944Z,16.80
2023-05-01T02:33:54.561Z,16.52
2023-05-01T02:34:09.525Z,17.27
2023-05-01T02:34:22.339Z,18.50
2023-05-01T02:34:35.619Z,17.13
2023-05-01T02:34:48.157Z,16.20
2023-05-01T02:35:01.389Z,16.17
2023-05-01T02:35:14.175Z,16.35
2023-05-01T02:35:27.712Z,16.02
2023-05-01T02:35:40.965Z,15.88
2023-05-01T02:35:53.496Z,16.83
2023-05-01T02:36:06.324Z,16.42
2023-05-01T02:36:18.899Z,15.68
2023-05-01T02:36:33.409Z,15.38
2023-05-01T02:36:45.922Z,15.50
2023-05-01T02:36:58.705Z,15.95
2023-05-01T02:37:13.039Z,16.58
2023-05-01T02:37:25.832Z,16.60
2023-05-01T02:37:39.749Z,17.13
2023-05-01T02:37:52.877Z,16.38
2023-05-01T02:38:05.487Z,16.13
2023-05-01T02:38:18.554Z,16.63
2023-05-01T02:38:31.557Z,17.17
2023-05-01T02:38:47.162Z,16.08
2023-05-01T02:39:00.121Z,16.10
2023-05-01T02:39:13.214Z,15.52
2023-05-01T02:39:25.927Z,14.77
2023-05-01T02:39:39.257Z,15.90
2023-05-01T02:39:52.564Z,17.17
2023-05-01T02:40:07.537Z,17.35
2023-05-01T02:40:21.974Z,16.05
2023-05-01T02:40:37.010Z,15.27
2023-05-01T02:40:53.504Z,16.42
2023-05-01T02:41:08.639Z,16.30
2023-05-01T02:41:22.580Z,14.52
2023-05-01T02:41:35.592Z,14.23
2023-05-01T02:41:49.400Z,16.48
2023-05-01T02:42:03.439Z,18.15
2023-05-01T02:42:18.478Z,18.70
2023-05-01T02:42:33.383Z,18.92
2023-05-01T02:42:48.135Z,18.10
2023-05-01T02:43:05.209Z,16.60
2023-05-01T02:43:21.196Z,16.83
2023-05-01T02:43:34.733Z,17.52
2023-05-01T02:43:49.902Z,16.45
2023-05-01T02:44:04.714Z,16.02
2023-05-01T02:44:19.180Z,16.20
2023-05-01T02:44:38.611Z,15.15
2023-05-01T02:44:53.990Z,15.27
2023-05-01T02:45:10.068Z,16.13
2023-05-01T02:45:25.056Z,16.13
2023-05-01T02:45:40.407Z,15.75
2023-05-01T02:45:55.211Z,15.40
2023-05-01T02:46:10.600Z,17.05
2023-05-01T02:46:27.330Z,18.20
2023-05-01T02:46:43.629Z,17.75
2023-05-01T02:46:57.677Z,16.38
2023-05-01T02:47:13.273Z,16.10
2023-05-01T02:47:29.558Z,15.23
2023-05-01T02:47:44.309Z,15.07
2023-05-01T02:48:00.096Z,17.63
2023-05-01T02:48:17.488Z,17.67
2023-05-01T02:48:32.601Z,16.83
2023-05-01T02:48:47.132Z,17.88
2023-05-01T02:49:02.373Z,17.48
2023-05-01T02:49:17.613Z,17.05
2023-05-01T02:49:32.480Z,17.38
2023-05-01T02:49:47.052Z,16.70
2023-05-01T02:50:00.470Z,15.55
2023-05-01T02:50:15.545Z,16.25
2023-05-01T02:50:29.743Z,17.35
2023-05-01T02:50:44.272Z,16.65
2023-05-01T02:50:58.379Z,16.05
2023-05-01T02:51:12.059Z,17.08
2023-05-01T02:51:24.982Z,17.62
2023-05-01T02:51:38.737Z,16.77
2023-05-01T02:51:51.514Z,16.50
2023-05-01T02:52:06.331Z,16.80
2023-05-01T02:52:19.818Z,18.80
2023-05-01T02:52:32.673Z,19.73
2023-05-01T02:52:46.329Z,18.50
2023-05-01T02:52:59.797Z,18.30
2023-05-01T02:53:13.447Z,19.55
2023-05-01T02:53:26.016Z,18.65
2023-05-01T02:53:40.231Z,16.13
2023-05-01T02:53:54.336Z,16.83
2023-05-01T02:54:08.406Z,18.40
2023-05-01T02:54:21.688Z,17.23
2023-05-01T02:54:34.856Z,16.73
2023-05-01T02:54:47.501Z,16.63
2023-05-01T02:55:00.920Z,18.15
2023-05-01T02:55:13.727Z,18.13
2023-05-01T02:55:26.995Z,16.75
2023-05-01T02:55:40.698Z,16.67
2023-05-01T02:55:53.808Z,18.52
2023-05-01T02:56:07.875Z,17.85
2023-05-01T02:56:20.510Z,17.65
2023-05-01T02:56:33.137Z,18.05
2023-05-01T02:56:45.674Z,17.73
2023-05-01T02:56:59.632Z,17.50
2023-05-01T02:57:13.743Z,18.02
2023-05-01T02:57:26.304Z,17.80
2023-05-01T02:57:39.157Z,17.90
2023-05-01T02:57:51.863Z,16.48
2023-05-01T02:58:04.507Z,17.88
2023-05-01T02:58:17.785Z,18.25
2023-05-01T02:58:33.293Z,17.52
2023-05-01T02:58:45.909Z,17.17
2023-05-01T02:58:58.441Z,17.55
2023-05-01T02:59:11.021Z,17.60
2023-05-01T02:59:23.673Z,16.60
2023-05-01T02:59:36.181Z,14.98
2023-05-01T02:59:48.731Z,16.05
2023-05-01T03:00:02.286Z,16.75
2023-05-01T03:00:14.933Z,16.63
2023-05-01T03:00:28.008Z,15.45
2023-05-01T03:00:40.997Z,14.82
2023-05-01T03:00:53.686Z,15.43
2023-05-01T03:01:07.558Z,15.90
2023-05-01T03:01:20.780Z,15.70
2023-05-01T03:01:33.684Z,15.70
2023-05-01T03:01:47.422Z,15.30
2023-05-01T03:02:00.527Z,14.93
2023-05-01T03:02:13.099Z,14.85
2023-05-01T03:02:25.788Z,14.05
2023-05-01T03:02:38.544Z,13.35
2023-05-01T03:02:51.104Z,14.07
2023-05-01T03:03:03.985Z,14.23
2023-05-01T03:03:18.070Z,14.30
2023-05-01T03:03:31.131Z,13.60
2023-05-01T03:03:43.733Z,13.85
2023-05-01T03:03:56.315Z,15.73
2023-05-01T03:04:09.012Z,16.23
2023-05-01T03:04:23.002Z,14.45
2023-05-01T03:04:35.632Z,13.25
2023-05-01T03:04:48.316Z,13.32
2023-05-01T03:05:01.929Z,14.07
2023-05-01T03:05:14.434Z,15.23
2023-05-01T03:05:26.974Z,15.48
2023-05-01T03:05:39.651Z,15.10
2023-05-01T03:05:52.471Z,14.77
2023-05-01T03:06:05.420Z,14.48
2023-05-01T03:06:19.494Z,14.95
2023-05-01T03:06:32.109Z,14.50
2023-05-01T03:06:44.809Z,15.93
2023-05-01T03:06:57.573Z,15.95
2023-05-01T03:07:10.156Z,15.05
2023-05-01T03:07:22.961Z,14.20
2023-05-01T03:07:37.043Z,14.40
2023-05-01T03:07:51.167Z,14.80
2023-05-01T03:08:04.332Z,15.18
2023-05-01T03:08:17.212Z,14.40
2023-05-01T03:08:29.694Z,13.48
2023-05-01T03:08:42.215Z,13.77
2023-05-01T03:08:54.948Z,13.30
2023-05-01T03:09:08.552Z,13.52
2023-05-01T03:09:21.274Z,14.25
2023-05-01T03:09:34.075Z,13.77
2023-05-01T03:09:46.626Z,14.43
2023-05-01T03:09:59.107Z,14.15
2023-05-01T03:10:11.859Z,14.52
2023-05-01T03:10:24.416Z,14.90
2023-05-01T03:10:37.068Z,14.85
2023-05-01T03:10:50.579Z,13.88
2023-05-01T03:11:05.598Z,13.23
2023-05-01T03:11:18.141Z,14.23
2023-05-01T03:11:30.708Z,14.10
2023-05-01T03:11:43.257Z,12.98
2023-05-01T03:11:55.924Z,13.05
2023-05-01T03:12:09.501Z,15.00
2023-05-01T03:12:22.216Z,15.45
2023-05-01T03:12:34.751Z,13.90
2023-05-01T03:12:47.261Z,13.25
2023-05-01T03:13:00.427Z,13.32
2023-05-01T03:13:13.097Z,14.45
2023-05-01T03:13:26.306Z,15.75
2023-05-01T03:13:39.916Z,16.27
2023-05-01T03:13:52.467Z,15.48
2023-05-01T03:14:05.583Z,13.77
2023-05-01T03:14:18.167Z,13.63